Divinopolis, Brazil
Current Conditions -  °F | °C
As of 5:00 PM on Friday 24 Oct 2014 (Local Time) from SBBH Reporting Station
Scattered Clouds Scattered Clouds  
Wind Chill: 88°   Ceiling: Unl
Heat Index: 88°   Visibility: 6mi
Dew Point: 48°   Wind: 5mph
Humidity: 25%   Direction: 160°SSE
Pressure: 29.94"   Gusts: NA
Location:  20.15°S, 44.9°W
Report Text: SBBH 241900Z 16004KT 9999 SCT030 31/09 Q1014
Loading
Personal Weather Stations






























Interactive Weather Map New forecast layout! Learn more

10-Day Weather Forecast

Advertisements
Track Severe Weather on mobile